createdAt,value
2022-11-19T12:29:53.164Z,1.85
2022-11-19T12:32:45.255Z,2.75
2022-11-19T12:35:30.125Z,2.45
2022-11-19T12:50:42.283Z,1.38
2022-11-19T12:53:23.753Z,2.00
2022-11-19T12:56:30.392Z,1.13
2022-11-19T13:22:51.314Z,1.35
2022-11-19T13:44:14.572Z,2.10
2022-11-19T13:46:46.198Z,1.83
2022-11-19T13:52:10.523Z,2.15
2022-11-19T13:54:41.049Z,1.80
2022-11-19T13:57:09.748Z,2.33
2022-11-19T13:59:47.446Z,2.03
2022-11-19T14:02:32.301Z,1.88
2022-11-19T14:05:20.185Z,1.70
2022-11-19T14:08:11.494Z,2.13
2022-11-19T14:10:44.328Z,2.20
2022-11-19T14:13:51.628Z,2.35
2022-11-19T14:16:51.975Z,2.00
2022-11-19T14:19:37.336Z,2.15
2022-11-19T14:23:13.819Z,2.97
2022-11-19T14:26:01.573Z,2.70
2022-11-19T14:28:53.991Z,2.15
2022-11-19T14:31:20.788Z,2.17
2022-11-19T14:33:47.203Z,2.00
2022-11-19T14:36:28.364Z,2.70
2022-11-19T14:39:01.438Z,2.10
2022-11-19T14:41:35.186Z,2.45
2022-11-19T14:44:13.029Z,2.78
2022-11-19T14:46:48.308Z,2.35
2022-11-19T14:49:33.523Z,2.85
2022-11-19T14:52:00.659Z,2.67
2022-11-19T14:54:43.031Z,2.40
2022-11-19T15:00:22.771Z,1.60
2022-11-19T15:02:53.808Z,2.03
2022-11-19T15:05:33.166Z,2.42
2022-11-19T15:08:17.994Z,2.10
2022-11-19T15:10:49.138Z,3.38
2022-11-19T15:13:40.674Z,4.50
2022-11-19T15:16:22.789Z,3.30
2022-11-19T15:19:27.036Z,3.10
2022-11-19T15:22:19.797Z,2.30
2022-11-19T15:25:22.731Z,1.98
2022-11-19T15:27:56.629Z,1.88
2022-11-19T15:30:37.955Z,5.28
2022-11-19T15:33:08.519Z,2.92
2022-11-19T15:36:06.103Z,3.38
2022-11-19T15:39:01.446Z,4.57
2022-11-19T15:41:31.545Z,5.88
2022-11-19T15:46:38.986Z,3.70
2022-11-19T15:49:11.398Z,2.70
2022-11-19T15:52:05.332Z,2.90
2022-11-19T15:54:34.835Z,3.13
2022-11-19T15:57:06.315Z,2.90
2022-11-19T15:59:38.364Z,4.05
2022-11-19T16:02:15.679Z,4.85
2022-11-19T16:04:42.357Z,6.68
2022-11-19T16:07:10.195Z,6.97
2022-11-19T16:09:37.754Z,9.02
2022-11-19T16:12:22.809Z,8.95
2022-11-19T16:15:10.195Z,9.23
2022-11-19T16:17:46.711Z,10.40
2022-11-19T16:20:13.213Z,39.35
2022-11-19T16:23:00.942Z,23.80
2022-11-19T16:25:41.176Z,10.65
2022-11-19T16:28:12.710Z,13.45
2022-11-19T16:30:46.273Z,13.07
2022-11-19T16:33:22.515Z,11.95
2022-11-19T16:35:53.294Z,13.57
2022-11-19T16:38:26.200Z,12.20
2022-11-19T16:41:12.537Z,12.60
2022-11-19T16:43:43.739Z,11.48
2022-11-19T16:46:15.663Z,13.85
2022-11-19T16:48:42.603Z,14.57
2022-11-19T16:51:41.164Z,14.05
2022-11-19T16:54:10.635Z,14.68
2022-11-19T16:56:42.448Z,12.80
2022-11-19T16:59:17.624Z,14.68
2022-11-19T17:01:53.884Z,13.93
2022-11-19T17:04:21.638Z,14.45
2022-11-19T17:06:48.666Z,16.40
2022-11-19T17:09:35.923Z,16.60
2022-11-19T17:12:17.755Z,18.13
2022-11-19T17:14:48.694Z,23.02
2022-11-19T17:17:29.250Z,20.65
2022-11-19T17:19:57.527Z,15.95
2022-11-19T17:22:32.667Z,15.18
2022-11-19T17:25:01.953Z,17.85
2022-11-19T17:27:28.412Z,17.50
2022-11-19T17:30:10.729Z,16.05
2022-11-19T17:32:41.316Z,17.25
2022-11-19T17:35:29.482Z,18.00
2022-11-19T17:37:58.818Z,16.42
2022-11-19T17:40:25.426Z,18.35
2022-11-19T17:43:11.041Z,16.35
2022-11-19T17:45:37.511Z,18.05
2022-11-19T17:48:16.109Z,19.67
2022-11-19T17:50:42.531Z,19.50
2022-11-19T17:53:09.031Z,20.02
2022-11-19T17:55:35.919Z,19.10
2022-11-19T17:58:02.393Z,18.63
2022-11-19T18:00:29.016Z,17.73
2022-11-19T18:03:00.317Z,19.55
2022-11-19T18:05:33.723Z,18.70
2022-11-19T18:08:00.293Z,18.73
2022-11-19T18:10:26.857Z,19.40
2022-11-19T18:12:53.404Z,20.98
2022-11-19T18:15:20.623Z,19.48
2022-11-19T18:17:47.244Z,23.67
2022-11-19T18:20:14.025Z,23.13
2022-11-19T18:22:41.188Z,22.65
2022-11-19T18:25:14.733Z,21.63
2022-11-19T18:27:41.270Z,22.70
2022-11-19T18:30:08.363Z,23.15
2022-11-19T18:32:35.687Z,21.42
2022-11-19T18:35:02.301Z,20.75
2022-11-19T18:37:29.454Z,22.40
2022-11-19T18:39:56.107Z,20.70
2022-11-19T18:42:28.636Z,22.00
2022-11-19T18:44:55.106Z,23.48
2022-11-19T18:47:23.380Z,23.75
2022-11-19T18:49:50.097Z,21.02
2022-11-19T18:52:16.638Z,18.65
2022-11-19T18:54:43.583Z,19.67
2022-11-19T18:57:12.097Z,18.70
2022-11-19T18:59:39.232Z,19.70
2022-11-19T19:02:06.460Z,19.75
2022-11-19T19:04:32.948Z,20.67
2022-11-19T19:06:59.465Z,21.75
2022-11-19T19:09:26.447Z,21.60
2022-11-19T19:12:16.553Z,21.17
2022-11-19T19:14:44.658Z,22.67
2022-11-19T19:17:11.913Z,21.42
2022-11-19T19:19:38.962Z,20.80
2022-11-19T19:22:06.076Z,20.23
2022-11-19T19:24:32.956Z,22.00
2022-11-19T19:27:00.255Z,22.58
2022-11-19T19:29:27.004Z,22.52
2022-11-19T19:31:53.793Z,22.92
2022-11-19T19:34:20.589Z,23.98
2022-11-19T19:36:52.705Z,22.05
2022-11-19T19:39:19.878Z,19.30
2022-11-19T19:41:46.725Z,20.08
2022-11-19T19:44:13.243Z,19.60
2022-11-19T19:46:39.713Z,20.38
2022-11-19T19:49:06.212Z,18.88
2022-11-19T19:51:32.914Z,18.02
2022-11-19T19:54:00.280Z,15.77
2022-11-19T19:56:31.985Z,30.13
2022-11-19T19:58:59.424Z,21.25
2022-11-19T20:01:28.584Z,18.40
2022-11-19T20:04:08.861Z,16.97
2022-11-19T20:06:38.090Z,17.13
2022-11-19T20:09:08.973Z,17.38
2022-11-19T20:11:36.656Z,18.58
2022-11-19T20:14:04.178Z,21.27
2022-11-19T20:16:32.150Z,18.33
2022-11-19T20:18:59.979Z,15.50
2022-11-19T20:21:29.211Z,16.13
2022-11-19T20:23:55.822Z,18.90
2022-11-19T20:26:24.734Z,17.83
2022-11-19T20:28:59.623Z,16.50
2022-11-19T20:31:26.593Z,15.75
2022-11-19T20:33:59.254Z,18.25
2022-11-19T20:36:28.269Z,18.92
2022-11-19T20:38:57.382Z,21.48
2022-11-19T20:41:42.543Z,20.88
2022-11-19T20:44:20.592Z,28.20
2022-11-19T20:47:00.309Z,21.75
2022-11-19T20:49:29.272Z,23.45
2022-11-19T20:51:56.504Z,22.48
2022-11-19T20:54:24.499Z,22.27
2022-11-19T20:56:52.367Z,20.00
2022-11-19T20:59:19.819Z,18.50
2022-11-19T21:01:49.418Z,18.83
2022-11-19T21:04:16.319Z,20.77
2022-11-19T21:06:42.828Z,18.80
2022-11-19T21:09:09.444Z,19.85
2022-11-19T21:11:36.049Z,18.75
2022-11-19T21:14:03.564Z,18.48
2022-11-19T21:16:30.651Z,16.35
2022-11-19T21:18:57.179Z,20.65
2022-11-19T21:21:24.553Z,24.95
2022-11-19T21:23:52.191Z,24.02
2022-11-19T21:26:21.328Z,22.67
2022-11-19T21:28:52.349Z,20.57
2022-11-19T21:31:21.959Z,18.58
2022-11-19T21:33:48.750Z,18.20
2022-11-19T21:36:15.269Z,17.38
2022-11-19T21:38:41.795Z,19.08
2022-11-19T21:41:08.265Z,16.23
2022-11-19T21:43:35.336Z,17.50
2022-11-19T21:46:01.913Z,19.23
2022-11-19T21:48:28.507Z,16.35
2022-11-19T21:50:55.005Z,17.95
2022-11-19T21:53:21.528Z,17.05
2022-11-19T21:55:49.185Z,17.35
2022-11-19T21:58:16.553Z,15.50
2022-11-19T22:00:44.220Z,15.25
2022-11-19T22:03:10.933Z,15.15
2022-11-19T22:05:37.536Z,14.82
2022-11-19T22:08:04.374Z,14.25
2022-11-19T22:10:31.013Z,13.20
2022-11-19T22:12:58.650Z,14.18
2022-11-19T22:15:26.674Z,14.13
2022-11-19T22:17:53.165Z,15.40
2022-11-19T22:20:19.719Z,14.43
2022-11-19T22:22:46.548Z,14.82
2022-11-19T22:25:13.506Z,15.18
2022-11-19T22:27:41.670Z,13.60
2022-11-19T22:30:10.157Z,15.27
2022-11-19T22:32:37.162Z,15.55
2022-11-19T22:35:04.717Z,15.80
2022-11-19T22:37:31.302Z,16.65
2022-11-19T22:39:57.872Z,16.27
2022-11-19T22:42:24.661Z,14.20
2022-11-19T22:44:51.691Z,14.73
2022-11-19T22:47:18.183Z,15.23
2022-11-19T22:49:44.712Z,14.55
2022-11-19T22:52:11.192Z,14.55
2022-11-19T22:54:41.624Z,14.20
2022-11-19T22:57:08.694Z,16.92
2022-11-19T22:59:35.765Z,14.27
2022-11-19T23:02:02.664Z,14.65
2022-11-19T23:04:29.427Z,14.07
2022-11-19T23:06:56.118Z,14.23
2022-11-19T23:09:23.239Z,13.95
2022-11-19T23:12:08.605Z,13.38
2022-11-19T23:14:35.121Z,14.98
2022-11-19T23:17:01.603Z,14.23
2022-11-19T23:19:28.114Z,13.90
2022-11-19T23:21:54.622Z,13.73
2022-11-19T23:24:21.232Z,14.68
2022-11-19T23:26:47.738Z,15.63
2022-11-19T23:29:14.364Z,15.85
2022-11-19T23:31:40.875Z,15.95
2022-11-19T23:34:07.919Z,16.08
2022-11-19T23:36:39.768Z,15.23
2022-11-19T23:39:10.122Z,15.80
2022-11-19T23:41:36.754Z,16.83
2022-11-19T23:44:03.303Z,15.70
2022-11-19T23:46:33.211Z,15.90
2022-11-19T23:49:00.737Z,17.25
2022-11-19T23:51:32.587Z,15.25
2022-11-19T23:53:59.522Z,17.13
2022-11-19T23:56:28.708Z,16.17
2022-11-19T23:58:55.579Z,16.07
